sensor_id;sensor_type;location;lat;lon;timestamp;pressure;altitude;pressure_sealevel;temperature;humidity
32638;BME280;19045;52.268;10.506;2022-11-25T00:01:31;100454.34;;;4.66;100.00
32638;BME280;19045;52.268;10.506;2022-11-25T00:03:59;100452.56;;;4.60;100.00
32638;BME280;19045;52.268;10.506;2022-11-25T00:06:28;100453.22;;;4.56;100.00
32638;BME280;19045;52.268;10.506;2022-11-25T00:08:57;100440.94;;;4.55;100.00
32638;BME280;19045;52.268;10.506;2022-11-25T00:11:24;100444.47;;;4.49;100.00
32638;BME280;19045;52.268;10.506;2022-11-25T00:13:51;100436.34;;;4.44;100.00
32638;BME280;19045;52.268;10.506;2022-11-25T00:16:19;100445.91;;;4.45;100.00
32638;BME280;19045;52.268;10.506;2022-11-25T00:18:47;100442.09;;;4.41;100.00
32638;BME280;19045;52.268;10.506;2022-11-25T00:21:16;100439.69;;;4.33;100.00
32638;BME280;19045;52.268;10.506;2022-11-25T00:23:49;100436.00;;;4.34;100.00
32638;BME280;19045;52.268;10.506;2022-11-25T00:26:16;100437.28;;;4.25;100.00
32638;BME280;19045;52.268;10.506;2022-11-25T00:28:44;100447.47;;;4.28;100.00
32638;BME280;19045;52.268;10.506;2022-11-25T00:31:12;100442.44;;;4.20;100.00
32638;BME280;19045;52.268;10.506;2022-11-25T00:33:40;100448.22;;;4.10;100.00
32638;BME280;19045;52.268;10.506;2022-11-25T00:36:13;100443.09;;;4.08;100.00
32638;BME280;19045;52.268;10.506;2022-11-25T00:38:40;100445.22;;;4.00;100.00
32638;BME280;19045;52.268;10.506;2022-11-25T00:41:08;100446.47;;;3.97;100.00
32638;BME280;19045;52.268;10.506;2022-11-25T00:43:53;100438.91;;;3.94;100.00
32638;BME280;19045;52.268;10.506;2022-11-25T00:46:36;100442.41;;;3.88;100.00
32638;BME280;19045;52.268;10.506;2022-11-25T00:49:03;100446.31;;;3.86;100.00
32638;BME280;19045;52.268;10.506;2022-11-25T00:51:30;100444.91;;;3.83;100.00
32638;BME280;19045;52.268;10.506;2022-11-25T00:53:56;100445.91;;;3.82;100.00
32638;BME280;19045;52.268;10.506;2022-11-25T00:56:25;100445.66;;;3.97;100.00
32638;BME280;19045;52.268;10.506;2022-11-25T00:58:52;100445.22;;;4.00;100.00
32638;BME280;19045;52.268;10.506;2022-11-25T01:01:19;100452.53;;;4.04;100.00
32638;BME280;19045;52.268;10.506;2022-11-25T01:03:47;100442.56;;;4.00;100.00
32638;BME280;19045;52.268;10.506;2022-11-25T01:06:14;100439.09;;;3.99;100.00
32638;BME280;19045;52.268;10.506;2022-11-25T01:08:42;100448.88;;;3.99;100.00
32638;BME280;19045;52.268;10.506;2022-11-25T01:11:11;100450.31;;;4.01;100.00
32638;BME280;19045;52.268;10.506;2022-11-25T01:13:39;100443.00;;;3.97;100.00
32638;BME280;19045;52.268;10.506;2022-11-25T01:16:07;100440.09;;;3.98;100.00
32638;BME280;19045;52.268;10.506;2022-11-25T01:18:34;100440.34;;;3.97;100.00
32638;BME280;19045;52.268;10.506;2022-11-25T01:21:05;100436.00;;;4.02;100.00
32638;BME280;19045;52.268;10.506;2022-11-25T01:23:31;100435.19;;;4.02;100.00
32638;BME280;19045;52.268;10.506;2022-11-25T01:26:00;100439.09;;;3.99;100.00
32638;BME280;19045;52.268;10.506;2022-11-25T01:28:27;100443.81;;;3.97;100.00
32638;BME280;19045;52.268;10.506;2022-11-25T01:31:00;100440.53;;;3.95;100.00
32638;BME280;19045;52.268;10.506;2022-11-25T01:33:27;100435.19;;;4.02;100.00
32638;BME280;19045;52.268;10.506;2022-11-25T01:35:54;100435.78;;;4.04;100.00
32638;BME280;19045;52.268;10.506;2022-11-25T01:38:20;100434.34;;;4.01;100.00
32638;BME280;19045;52.268;10.506;2022-11-25T01:40:47;100429.28;;;4.00;100.00
32638;BME280;19045;52.268;10.506;2022-11-25T01:43:14;100426.38;;;4.01;100.00
32638;BME280;19045;52.268;10.506;2022-11-25T01:45:40;100421.50;;;3.98;100.00
32638;BME280;19045;52.268;10.506;2022-11-25T01:48:13;100414.34;;;3.99;100.00
32638;BME280;19045;52.268;10.506;2022-11-25T01:50:42;100409.25;;;3.97;100.00
32638;BME280;19045;52.268;10.506;2022-11-25T01:53:10;100413.53;;;3.98;100.00
32638;BME280;19045;52.268;10.506;2022-11-25T01:55:43;100405.16;;;3.95;100.00
32638;BME280;19045;52.268;10.506;2022-11-25T01:58:15;100408.44;;;3.97;100.00
32638;BME280;19045;52.268;10.506;2022-11-25T02:00:43;100402.06;;;3.98;100.00
32638;BME280;19045;52.268;10.506;2022-11-25T02:03:18;100405.13;;;4.01;100.00
32638;BME280;19045;52.268;10.506;2022-11-25T02:05:51;100402.03;;;4.04;100.00
32638;BME280;19045;52.268;10.506;2022-11-25T02:08:20;100409.41;;;4.02;100.00
32638;BME280;19045;52.268;10.506;2022-11-25T02:10:51;100404.50;;;4.06;100.00
32638;BME280;19045;52.268;10.506;2022-11-25T02:13:20;100407.97;;;4.06;100.00
32638;BME280;19045;52.268;10.506;2022-11-25T02:15:46;100400.03;;;4.00;100.00
32638;BME280;19045;52.268;10.506;2022-11-25T02:18:13;100406.59;;;3.97;100.00
32638;BME280;19045;52.268;10.506;2022-11-25T02:20:41;100393.09;;;3.99;100.00
32638;BME280;19045;52.268;10.506;2022-11-25T02:23:15;100400.03;;;4.00;100.00
32638;BME280;19045;52.268;10.506;2022-11-25T02:25:47;100402.91;;;3.98;100.00
32638;BME280;19045;52.268;10.506;2022-11-25T02:28:16;100407.03;;;3.94;100.00
32638;BME280;19045;52.268;10.506;2022-11-25T02:30:44;100396.59;;;3.93;100.00
32638;BME280;19045;52.268;10.506;2022-11-25T02:33:12;100396.22;;;3.89;100.00
32638;BME280;19045;52.268;10.506;2022-11-25T02:35:40;100401.88;;;3.99;100.00
32638;BME280;19045;52.268;10.506;2022-11-25T02:38:10;100405.50;;;4.05;100.00
32638;BME280;19045;52.268;10.506;2022-11-25T02:40:44;100407.00;;;4.01;100.00
32638;BME280;19045;52.268;10.506;2022-11-25T02:43:13;100404.38;;;3.94;100.00
32638;BME280;19045;52.268;10.506;2022-11-25T02:45:54;100406.22;;;3.94;100.00
32638;BME280;19045;52.268;10.506;2022-11-25T02:48:22;100404.53;;;3.99;100.00
32638;BME280;19045;52.268;10.506;2022-11-25T02:50:49;100401.91;;;3.93;100.00
32638;BME280;19045;52.268;10.506;2022-11-25T02:53:16;100402.31;;;3.96;100.00
32638;BME280;19045;52.268;10.506;2022-11-25T02:55:43;100399.84;;;3.95;100.00
32638;BME280;19045;52.268;10.506;2022-11-25T02:58:09;100397.59;;;3.98;100.00
32638;BME280;19045;52.268;10.506;2022-11-25T03:00:38;100408.59;;;4.02;100.00
32638;BME280;19045;52.268;10.506;2022-11-25T03:03:05;100408.63;;;3.95;100.00
32638;BME280;19045;52.268;10.506;2022-11-25T03:05:32;100402.91;;;3.98;100.00
32638;BME280;19045;52.268;10.506;2022-11-25T03:08:00;100405.59;;;3.92;100.00
32638;BME280;19045;52.268;10.506;2022-11-25T03:10:27;100404.53;;;3.99;100.00
32638;BME280;19045;52.268;10.506;2022-11-25T03:12:53;100409.84;;;3.99;100.00
32638;BME280;19045;52.268;10.506;2022-11-25T03:15:21;100404.38;;;3.94;100.00
32638;BME280;19045;52.268;10.506;2022-11-25T03:17:49;100397.91;;;4.08;100.00
32638;BME280;19045;52.268;10.506;2022-11-25T03:20:17;100395.94;;;4.04;100.00
32638;BME280;19045;52.268;10.506;2022-11-25T03:22:45;100389.59;;;3.98;100.00
32638;BME280;19045;52.268;10.506;2022-11-25T03:25:12;100387.13;;;4.03;100.00
32638;BME280;19045;52.268;10.506;2022-11-25T03:27:40;100394.88;;;4.05;100.00
32638;BME280;19045;52.268;10.506;2022-11-25T03:30:08;100391.25;;;3.99;100.00
32638;BME280;19045;52.268;10.506;2022-11-25T03:32:35;100396.19;;;3.96;100.00
32638;BME280;19045;52.268;10.506;2022-11-25T03:35:04;100401.25;;;4.04;100.00
32638;BME280;19045;52.268;10.506;2022-11-25T03:37:31;100398.00;;;3.95;100.00
32638;BME280;19045;52.268;10.506;2022-11-25T03:39:58;100400.28;;;3.92;100.00
32638;BME280;19045;52.268;10.506;2022-11-25T03:42:25;100396.81;;;3.91;100.00
32638;BME280;19045;52.268;10.506;2022-11-25T03:44:51;100389.88;;;3.90;100.00
32638;BME280;19045;52.268;10.506;2022-11-25T03:47:18;100389.25;;;3.88;100.00
32638;BME280;19045;52.268;10.506;2022-11-25T03:49:44;100390.44;;;3.99;100.00
32638;BME280;19045;52.268;10.506;2022-11-25T03:52:13;100390.66;;;3.97;100.00
32638;BME280;19045;52.268;10.506;2022-11-25T03:54:39;100396.56;;;3.99;100.00
32638;BME280;19045;52.268;10.506;2022-11-25T03:57:06;100403.94;;;3.97;100.00
32638;BME280;19045;52.268;10.506;2022-11-25T03:59:33;100402.75;;;3.93;100.00
32638;BME280;19045;52.268;10.506;2022-11-25T04:01:59;100404.38;;;3.94;100.00
32638;BME280;19045;52.268;10.506;2022-11-25T04:04:26;100404.97;;;3.96;100.00
32638;BME280;19045;52.268;10.506;2022-11-25T04:06:53;100404.53;;;3.99;100.00
32638;BME280;19045;52.268;10.506;2022-11-25T04:09:21;100407.81;;;3.95;100.00
32638;BME280;19045;52.268;10.506;2022-11-25T04:11:48;100404.97;;;3.96;100.00
32638;BME280;19045;52.268;10.506;2022-11-25T04:14:32;100397.00;;;3.96;100.00
32638;BME280;19045;52.268;10.506;2022-11-25T04:16:58;100398.00;;;3.95;100.00
32638;BME280;19045;52.268;10.506;2022-11-25T04:19:25;100394.16;;;3.91;100.00
32638;BME280;19045;52.268;10.506;2022-11-25T04:21:52;100402.13;;;3.91;100.00
32638;BME280;19045;52.268;10.506;2022-11-25T04:24:20;100397.84;;;3.90;100.00
32638;BME280;19045;52.268;10.506;2022-11-25T04:26:47;100404.19;;;3.89;100.00
32638;BME280;19045;52.268;10.506;2022-11-25T04:29:13;100394.56;;;3.88;100.00
32638;BME280;19045;52.268;10.506;2022-11-25T04:31:40;100399.72;;;3.83;100.00
32638;BME280;19045;52.268;10.506;2022-11-25T04:34:07;100397.91;;;3.84;100.00
32638;BME280;19045;52.268;10.506;2022-11-25T04:36:34;100390.78;;;3.78;100.00
32638;BME280;19045;52.268;10.506;2022-11-25T04:39:00;100391.56;;;3.78;100.00
32638;BME280;19045;52.268;10.506;2022-11-25T04:41:28;100386.91;;;3.74;100.00
32638;BME280;19045;52.268;10.506;2022-11-25T04:43:58;100392.44;;;3.72;100.00
32638;BME280;19045;52.268;10.506;2022-11-25T04:46:34;100394.47;;;3.77;100.00
32638;BME280;19045;52.268;10.506;2022-11-25T04:49:01;100395.91;;;3.73;100.00
32638;BME280;19045;52.268;10.506;2022-11-25T04:51:32;100394.06;;;3.73;100.00
32638;BME280;19045;52.268;10.506;2022-11-25T04:53:58;100394.03;;;3.80;100.00
32638;BME280;19045;52.268;10.506;2022-11-25T04:56:25;100388.13;;;3.78;100.00
32638;BME280;19045;52.268;10.506;2022-11-25T04:58:53;100396.09;;;3.78;100.00
32638;BME280;19045;52.268;10.506;2022-11-25T05:01:37;100402.63;;;3.75;100.00
32638;BME280;19045;52.268;10.506;2022-11-25T05:04:03;100394.63;;;3.82;100.00
32638;BME280;19045;52.268;10.506;2022-11-25T05:06:30;100385.44;;;3.84;100.00
32638;BME280;19045;52.268;10.506;2022-11-25T05:08:57;100388.91;;;3.78;100.00
32638;BME280;19045;52.268;10.506;2022-11-25T05:11:23;100393.44;;;3.78;100.00
32638;BME280;19045;52.268;10.506;2022-11-25T05:13:50;100386.25;;;3.78;100.00
32638;BME280;19045;52.268;10.506;2022-11-25T05:16:18;100388.50;;;3.81;100.00
32638;BME280;19045;52.268;10.506;2022-11-25T05:18:44;100388.09;;;3.84;100.00
32638;BME280;19045;52.268;10.506;2022-11-25T05:21:11;100395.81;;;3.86;100.00
32638;BME280;19045;52.268;10.506;2022-11-25T05:23:38;100397.44;;;3.93;100.00
32638;BME280;19045;52.268;10.506;2022-11-25T05:26:04;100400.09;;;3.93;100.00
32638;BME280;19045;52.268;10.506;2022-11-25T05:28:31;100398.72;;;3.84;100.00
32638;BME280;19045;52.268;10.506;2022-11-25T05:30:59;100400.38;;;3.79;100.00
32638;BME280;19045;52.268;10.506;2022-11-25T05:33:27;100396.88;;;3.78;100.00
32638;BME280;19045;52.268;10.506;2022-11-25T05:35:55;100406.91;;;3.76;100.00
32638;BME280;19045;52.268;10.506;2022-11-25T05:38:22;100406.41;;;3.92;100.00
32638;BME280;19045;52.268;10.506;2022-11-25T05:40:48;100395.66;;;3.81;100.00
32638;BME280;19045;52.268;10.506;2022-11-25T05:43:15;100400.16;;;3.80;100.00
32638;BME280;19045;52.268;10.506;2022-11-25T05:45:42;100403.69;;;3.74;100.00
32638;BME280;19045;52.268;10.506;2022-11-25T05:48:09;100401.38;;;3.84;100.00
32638;BME280;19045;52.268;10.506;2022-11-25T05:50:38;100395.97;;;3.97;100.00
32638;BME280;19045;52.268;10.506;2022-11-25T05:53:04;100395.59;;;4.18;100.00
32638;BME280;19045;52.268;10.506;2022-11-25T05:55:31;100400.97;;;4.12;100.00
32638;BME280;19045;52.268;10.506;2022-11-25T05:57:59;100391.78;;;4.08;100.00
32638;BME280;19045;52.268;10.506;2022-11-25T06:00:27;100386.69;;;4.06;100.00
32638;BME280;19045;52.268;10.506;2022-11-25T06:02:54;100389.31;;;4.13;100.00
32638;BME280;19045;52.268;10.506;2022-11-25T06:05:21;100393.81;;;4.12;100.00
32638;BME280;19045;52.268;10.506;2022-11-25T06:07:49;100380.19;;;4.02;100.00
32638;BME280;19045;52.268;10.506;2022-11-25T06:10:16;100385.97;;;3.93;100.00
32638;BME280;19045;52.268;10.506;2022-11-25T06:12:43;100386.56;;;3.95;100.00
32638;BME280;19045;52.268;10.506;2022-11-25T06:15:10;100392.75;;;3.89;100.00
32638;BME280;19045;52.268;10.506;2022-11-25T06:17:37;100385.63;;;3.83;100.00
32638;BME280;19045;52.268;10.506;2022-11-25T06:20:05;100393.81;;;3.81;100.00
32638;BME280;19045;52.268;10.506;2022-11-25T06:22:32;100386.22;;;3.85;100.00
32638;BME280;19045;52.268;10.506;2022-11-25T06:25:00;100387.00;;;3.92;100.00
32638;BME280;19045;52.268;10.506;2022-11-25T06:27:27;100392.16;;;3.87;100.00
32638;BME280;19045;52.268;10.506;2022-11-25T06:29:53;100392.41;;;3.79;100.00
32638;BME280;19045;52.268;10.506;2022-11-25T06:32:20;100393.66;;;3.76;100.00
32638;BME280;19045;52.268;10.506;2022-11-25T06:34:47;100393.66;;;3.76;100.00
32638;BME280;19045;52.268;10.506;2022-11-25T06:37:13;100390.78;;;3.78;100.00
32638;BME280;19045;52.268;10.506;2022-11-25T06:39:40;100393.47;;;3.71;100.00
32638;BME280;19045;52.268;10.506;2022-11-25T06:42:08;100397.94;;;3.77;100.00
32638;BME280;19045;52.268;10.506;2022-11-25T06:44:35;100399.72;;;3.83;100.00
32638;BME280;19045;52.268;10.506;2022-11-25T06:47:01;100408.75;;;3.76;100.00
32638;BME280;19045;52.268;10.506;2022-11-25T06:49:28;100411.41;;;3.76;100.00
32638;BME280;19045;52.268;10.506;2022-11-25T06:51:55;100407.91;;;3.82;100.00
32638;BME280;19045;52.268;10.506;2022-11-25T06:54:22;100406.69;;;3.84;100.00
32638;BME280;19045;52.268;10.506;2022-11-25T06:56:48;100411.31;;;3.95;100.00
32638;BME280;19045;52.268;10.506;2022-11-25T06:59:19;100408.84;;;4.00;100.00
32638;BME280;19045;52.268;10.506;2022-11-25T07:01:46;100407.91;;;4.13;100.00
32638;BME280;19045;52.268;10.506;2022-11-25T07:04:13;100411.41;;;4.13;100.00
32638;BME280;19045;52.268;10.506;2022-11-25T07:06:39;100402.22;;;4.09;100.00
32638;BME280;19045;52.268;10.506;2022-11-25T07:09:06;100413.00;;;4.14;100.00
32638;BME280;19045;52.268;10.506;2022-11-25T07:11:34;100406.22;;;4.18;100.00
32638;BME280;19045;52.268;10.506;2022-11-25T07:14:03;100414.81;;;4.21;100.00
32638;BME280;19045;52.268;10.506;2022-11-25T07:16:32;100409.47;;;4.27;100.00
32638;BME280;19045;52.268;10.506;2022-11-25T07:18:59;100410.88;;;4.30;100.00
32638;BME280;19045;52.268;10.506;2022-11-25T07:21:27;100406.56;;;4.29;100.00
32638;BME280;19045;52.268;10.506;2022-11-25T07:23:54;100409.41;;;4.34;100.00
32638;BME280;19045;52.268;10.506;2022-11-25T07:26:22;100420.44;;;4.37;100.00
32638;BME280;19045;52.268;10.506;2022-11-25T07:28:53;100422.03;;;4.38;100.00
32638;BME280;19045;52.268;10.506;2022-11-25T07:31:22;100424.53;;;4.33;100.00
32638;BME280;19045;52.268;10.506;2022-11-25T07:33:51;100424.31;;;4.35;100.00
32638;BME280;19045;52.268;10.506;2022-11-25T07:36:19;100433.50;;;4.39;100.00
32638;BME280;19045;52.268;10.506;2022-11-25T07:38:47;100438.16;;;4.43;100.00
32638;BME280;19045;52.268;10.506;2022-11-25T07:41:15;100446.34;;;4.42;100.00
32638;BME280;19045;52.268;10.506;2022-11-25T07:43:43;100448.75;;;4.50;100.00
32638;BME280;19045;52.268;10.506;2022-11-25T07:46:11;100442.19;;;4.52;100.00
32638;BME280;19045;52.268;10.506;2022-11-25T07:48:39;100442.78;;;4.54;100.00
32638;BME280;19045;52.268;10.506;2022-11-25T07:51:14;100449.78;;;4.49;100.00
32638;BME280;19045;52.268;10.506;2022-11-25T07:53:41;100445.00;;;4.57;100.00
32638;BME280;19045;52.268;10.506;2022-11-25T07:56:08;100452.88;;;4.71;100.00
32638;BME280;19045;52.268;10.506;2022-11-25T07:58:34;100449.94;;;4.79;100.00
32638;BME280;19045;52.268;10.506;2022-11-25T08:01:02;100456.47;;;4.83;100.00
32638;BME280;19045;52.268;10.506;2022-11-25T08:03:30;100454.50;;;4.96;100.00
32638;BME280;19045;52.268;10.506;2022-11-25T08:05:59;100452.59;;;5.03;100.00
32638;BME280;19045;52.268;10.506;2022-11-25T08:08:27;100453.28;;;5.10;100.00
32638;BME280;19045;52.268;10.506;2022-11-25T08:10:53;100459.31;;;5.24;100.00
32638;BME280;19045;52.268;10.506;2022-11-25T08:13:20;100456.69;;;5.90;100.00
32638;BME280;19045;52.268;10.506;2022-11-25T08:15:47;100457.09;;;6.47;100.00
32638;BME280;19045;52.268;10.506;2022-11-25T08:18:14;100473.63;;;6.79;100.00
32638;BME280;19045;52.268;10.506;2022-11-25T08:20:41;100469.34;;;6.89;97.65
32638;BME280;19045;52.268;10.506;2022-11-25T08:23:07;100481.41;;;6.80;95.13
32638;BME280;19045;52.268;10.506;2022-11-25T08:25:39;100473.97;;;6.59;95.11
32638;BME280;19045;52.268;10.506;2022-11-25T08:28:07;100483.09;;;6.51;95.35
32638;BME280;19045;52.268;10.506;2022-11-25T08:30:34;100487.16;;;6.42;95.67
32638;BME280;19045;52.268;10.506;2022-11-25T08:33:01;100496.66;;;6.38;96.10
32638;BME280;19045;52.268;10.506;2022-11-25T08:35:29;100501.25;;;6.31;95.87
32638;BME280;19045;52.268;10.506;2022-11-25T08:37:56;100501.59;;;6.23;96.13
32638;BME280;19045;52.268;10.506;2022-11-25T08:40:22;100505.28;;;6.22;96.74
32638;BME280;19045;52.268;10.506;2022-11-25T08:42:50;100504.13;;;6.18;96.62
32638;BME280;19045;52.268;10.506;2022-11-25T08:45:17;100498.31;;;6.21;96.32
32638;BME280;19045;52.268;10.506;2022-11-25T08:47:44;100490.00;;;6.29;96.71
32638;BME280;19045;52.268;10.506;2022-11-25T08:50:12;100493.34;;;6.24;96.35
32638;BME280;19045;52.268;10.506;2022-11-25T08:52:40;100491.06;;;6.40;97.02
32638;BME280;19045;52.268;10.506;2022-11-25T08:55:07;100492.38;;;6.49;96.20
32638;BME280;19045;52.268;10.506;2022-11-25T08:57:34;100487.41;;;6.52;96.54
32638;BME280;19045;52.268;10.506;2022-11-25T09:00:03;100483.69;;;6.53;96.14
32638;BME280;19045;52.268;10.506;2022-11-25T09:02:30;100497.41;;;6.68;96.80
32638;BME280;19045;52.268;10.506;2022-11-25T09:04:57;100487.09;;;6.84;97.00
32638;BME280;19045;52.268;10.506;2022-11-25T09:07:23;100487.69;;;6.86;96.40
32638;BME280;19045;52.268;10.506;2022-11-25T09:09:50;100505.69;;;7.02;98.62
32638;BME280;19045;52.268;10.506;2022-11-25T09:12:17;100501.06;;;7.09;96.55
32638;BME280;19045;52.268;10.506;2022-11-25T09:14:43;100498.47;;;7.14;96.42
32638;BME280;19045;52.268;10.506;2022-11-25T09:17:12;100498.25;;;7.15;97.98
32638;BME280;19045;52.268;10.506;2022-11-25T09:19:39;100496.63;;;7.14;97.35
32638;BME280;19045;52.268;10.506;2022-11-25T09:22:06;100502.19;;;7.24;97.20
32638;BME280;19045;52.268;10.506;2022-11-25T09:24:33;100511.25;;;7.23;96.28
32638;BME280;19045;52.268;10.506;2022-11-25T09:27:00;100514.66;;;7.19;97.16
32638;BME280;19045;52.268;10.506;2022-11-25T09:29:26;100515.44;;;7.08;97.09
32638;BME280;19045;52.268;10.506;2022-11-25T09:31:54;100521.97;;;7.12;97.31
32638;BME280;19045;52.268;10.506;2022-11-25T09:34:22;100517.75;;;7.04;97.83
32638;BME280;19045;52.268;10.506;2022-11-25T09:36:49;100519.63;;;7.04;97.87
32638;BME280;19045;52.268;10.506;2022-11-25T09:39:16;100517.44;;;7.12;98.05
32638;BME280;19045;52.268;10.506;2022-11-25T09:41:54;100517.06;;;7.20;100.00
32638;BME280;19045;52.268;10.506;2022-11-25T09:44:50;100521.94;;;7.23;98.84
32638;BME280;19045;52.268;10.506;2022-11-25T09:47:45;100517.88;;;7.33;98.85
32638;BME280;19045;52.268;10.506;2022-11-25T09:50:20;100517.53;;;7.41;98.68
32638;BME280;19045;52.268;10.506;2022-11-25T09:53:00;100517.63;;;7.46;100.00
32638;BME280;19045;52.268;10.506;2022-11-25T09:55:36;100507.06;;;7.51;100.00
32638;BME280;19045;52.268;10.506;2022-11-25T09:58:15;100512.50;;;7.56;100.00
32638;BME280;19045;52.268;10.506;2022-11-25T10:00:46;100514.09;;;7.80;98.48
32638;BME280;19045;52.268;10.506;2022-11-25T10:03:19;100519.53;;;7.85;98.03
32638;BME280;19045;52.268;10.506;2022-11-25T10:05:57;100513.44;;;8.01;97.41
32638;BME280;19045;52.268;10.506;2022-11-25T10:08:29;100522.72;;;8.10;99.23
32638;BME280;19045;52.268;10.506;2022-11-25T10:11:02;100525.63;;;8.09;97.40
32638;BME280;19045;52.268;10.506;2022-11-25T10:13:35;100525.16;;;8.12;96.29
32638;BME280;19045;52.268;10.506;2022-11-25T10:16:21;100530.75;;;8.10;97.07
32638;BME280;19045;52.268;10.506;2022-11-25T10:18:56;100531.69;;;8.04;96.82
32638;BME280;19045;52.268;10.506;2022-11-25T10:21:26;100529.63;;;7.95;97.69
32638;BME280;19045;52.268;10.506;2022-11-25T10:23:53;100533.22;;;8.00;99.36
32638;BME280;19045;52.268;10.506;2022-11-25T10:26:24;100530.53;;;8.00;98.87
32638;BME280;19045;52.268;10.506;2022-11-25T10:28:56;100533.34;;;8.05;100.00
32638;BME280;19045;52.268;10.506;2022-11-25T10:31:24;100522.00;;;8.15;100.00
32638;BME280;19045;52.268;10.506;2022-11-25T10:33:55;100530.97;;;8.09;99.20
32638;BME280;19045;52.268;10.506;2022-11-25T10:36:28;100528.34;;;8.25;98.97
32638;BME280;19045;52.268;10.506;2022-11-25T10:38:59;100526.41;;;8.21;98.93
32638;BME280;19045;52.268;10.506;2022-11-25T10:41:30;100529.41;;;8.24;98.24
32638;BME280;19045;52.268;10.506;2022-11-25T10:43:57;100535.13;;;8.28;98.93
32638;BME280;19045;52.268;10.506;2022-11-25T10:46:30;100532.84;;;8.08;100.00
32638;BME280;19045;52.268;10.506;2022-11-25T10:49:00;100532.41;;;8.00;100.00
32638;BME280;19045;52.268;10.506;2022-11-25T10:51:37;100532.25;;;8.06;100.00
32638;BME280;19045;52.268;10.506;2022-11-25T10:54:14;100531.09;;;8.02;100.00
32638;BME280;19045;52.268;10.506;2022-11-25T10:56:48;100533.78;;;8.02;100.00
32638;BME280;19045;52.268;10.506;2022-11-25T10:59:27;100540.28;;;8.06;100.00
32638;BME280;19045;52.268;10.506;2022-11-25T11:02:13;100538.34;;;8.02;100.00
32638;BME280;19045;52.268;10.506;2022-11-25T11:04:55;100534.41;;;7.93;100.00
32638;BME280;19045;52.268;10.506;2022-11-25T11:07:25;100532.91;;;7.85;100.00
32638;BME280;19045;52.268;10.506;2022-11-25T11:09:52;100542.94;;;7.78;100.00
32638;BME280;19045;52.268;10.506;2022-11-25T11:12:22;100543.28;;;7.82;100.00
32638;BME280;19045;52.268;10.506;2022-11-25T11:14:51;100543.38;;;7.87;100.00
32638;BME280;19045;52.268;10.506;2022-11-25T11:17:28;100550.91;;;7.90;100.00
32638;BME280;19045;52.268;10.506;2022-11-25T11:20:00;100542.66;;;7.91;100.00
32638;BME280;19045;52.268;10.506;2022-11-25T11:22:28;100541.72;;;7.97;100.00
32638;BME280;19045;52.268;10.506;2022-11-25T11:25:05;100539.03;;;7.97;100.00
32638;BME280;19045;52.268;10.506;2022-11-25T11:27:35;100545.56;;;8.01;100.00
32638;BME280;19045;52.268;10.506;2022-11-25T11:30:09;100546.94;;;8.04;100.00
32638;BME280;19045;52.268;10.506;2022-11-25T11:32:37;100543.06;;;8.11;100.00
32638;BME280;19045;52.268;10.506;2022-11-25T11:35:07;100547.63;;;8.11;100.00
32638;BME280;19045;52.268;10.506;2022-11-25T11:37:43;100548.16;;;8.13;100.00
32638;BME280;19045;52.268;10.506;2022-11-25T11:40:24;100544.69;;;8.12;100.00
32638;BME280;19045;52.268;10.506;2022-11-25T11:43:03;100542.81;;;8.13;100.00
32638;BME280;19045;52.268;10.506;2022-11-25T11:45:53;100545.13;;;8.21;100.00
32638;BME280;19045;52.268;10.506;2022-11-25T11:48:30;100546.28;;;8.25;100.00
32638;BME280;19045;52.268;10.506;2022-11-25T11:51:08;100547.56;;;8.22;100.00
32638;BME280;19045;52.268;10.506;2022-11-25T11:53:45;100541.16;;;8.35;100.00
32638;BME280;19045;52.268;10.506;2022-11-25T11:56:19;100545.28;;;8.43;100.00
32638;BME280;19045;52.268;10.506;2022-11-25T11:59:00;100549.19;;;8.52;100.00
32638;BME280;19045;52.268;10.506;2022-11-25T12:01:41;100547.59;;;8.51;100.00
32638;BME280;19045;52.268;10.506;2022-11-25T12:04:15;100544.44;;;8.54;100.00
32638;BME280;19045;52.268;10.506;2022-11-25T12:06:48;100553.09;;;8.44;100.00
32638;BME280;19045;52.268;10.506;2022-11-25T12:09:20;100550.13;;;8.29;100.00
32638;BME280;19045;52.268;10.506;2022-11-25T12:11:52;100556.28;;;8.29;100.00
32638;BME280;19045;52.268;10.506;2022-11-25T12:14:28;100554.44;;;8.30;100.00
32638;BME280;19045;52.268;10.506;2022-11-25T12:17:00;100561.53;;;8.24;100.00
32638;BME280;19045;52.268;10.506;2022-11-25T12:19:32;100554.31;;;8.25;100.00
32638;BME280;19045;52.268;10.506;2022-11-25T12:22:05;100565.59;;;8.27;100.00
32638;BME280;19045;52.268;10.506;2022-11-25T12:24:39;100565.13;;;8.30;100.00
32638;BME280;19045;52.268;10.506;2022-11-25T12:27:11;100566.63;;;8.26;100.00
32638;BME280;19045;52.268;10.506;2022-11-25T12:29:44;100566.75;;;8.19;100.00
32638;BME280;19045;52.268;10.506;2022-11-25T12:35:18;100571.22;;;8.14;100.00
32638;BME280;19045;52.268;10.506;2022-11-25T12:37:51;100579.72;;;8.11;100.00
32638;BME280;19045;52.268;10.506;2022-11-25T12:40:26;100580.19;;;8.08;100.00
32638;BME280;19045;52.268;10.506;2022-11-25T12:43:03;100578.56;;;8.07;100.00
32638;BME280;19045;52.268;10.506;2022-11-25T12:45:32;100576.00;;;8.00;100.00
32638;BME280;19045;52.268;10.506;2022-11-25T12:47:58;100581.28;;;7.95;100.00
32638;BME280;19045;52.268;10.506;2022-11-25T12:50:35;100582.31;;;7.94;100.00
32638;BME280;19045;52.268;10.506;2022-11-25T12:53:13;100585.69;;;7.90;100.00
32638;BME280;19045;52.268;10.506;2022-11-25T12:55:44;100581.72;;;7.92;100.00